sensor_id;sensor_type;location;lat;lon;timestamp;P1;durP1;ratioP1;P2;durP2;ratioP2
44824;SDS011;30542;47.928;2.138;2023-05-10T00:00:40;0.97;;;0.10;;
44824;SDS011;30542;47.928;2.138;2023-05-10T00:05:41;0.60;;;0.20;;
44824;SDS011;30542;47.928;2.138;2023-05-10T00:10:41;0.50;;;0.10;;
44824;SDS011;30542;47.928;2.138;2023-05-10T00:15:42;0.30;;;0.10;;
44824;SDS011;30542;47.928;2.138;2023-05-10T00:20:42;0.83;;;0.20;;
44824;SDS011;30542;47.928;2.138;2023-05-10T00:25:42;0.30;;;0.10;;
44824;SDS011;30542;47.928;2.138;2023-05-10T00:30:43;0.60;;;0.10;;
44824;SDS011;30542;47.928;2.138;2023-05-10T00:35:43;0.68;;;0.10;;
44824;SDS011;30542;47.928;2.138;2023-05-10T00:40:43;1.20;;;0.10;;
44824;SDS011;30542;47.928;2.138;2023-05-10T00:45:44;1.03;;;0.10;;
44824;SDS011;30542;47.928;2.138;2023-05-10T00:50:44;0.60;;;0.10;;
44824;SDS011;30542;47.928;2.138;2023-05-10T00:55:45;0.75;;;0.17;;
44824;SDS011;30542;47.928;2.138;2023-05-10T01:00:45;1.07;;;0.20;;
44824;SDS011;30542;47.928;2.138;2023-05-10T01:05:48;0.73;;;0.10;;
44824;SDS011;30542;47.928;2.138;2023-05-10T01:10:48;0.43;;;0.10;;
44824;SDS011;30542;47.928;2.138;2023-05-10T01:15:49;0.98;;;0.10;;
44824;SDS011;30542;47.928;2.138;2023-05-10T01:20:53;0.75;;;0.10;;
44824;SDS011;30542;47.928;2.138;2023-05-10T01:37:09;1.98;;;0.50;;
44824;SDS011;30542;47.928;2.138;2023-05-10T01:42:23;1.23;;;0.10;;
44824;SDS011;30542;47.928;2.138;2023-05-10T01:52:44;0.55;;;0.20;;
44824;SDS011;30542;47.928;2.138;2023-05-10T01:58:04;0.43;;;0.10;;
44824;SDS011;30542;47.928;2.138;2023-05-10T02:03:08;0.63;;;0.10;;
44824;SDS011;30542;47.928;2.138;2023-05-10T02:08:11;0.60;;;0.20;;
44824;SDS011;30542;47.928;2.138;2023-05-10T02:13:13;0.32;;;0.10;;
44824;SDS011;30542;47.928;2.138;2023-05-10T02:18:16;0.63;;;0.10;;
44824;SDS011;30542;47.928;2.138;2023-05-10T02:23:17;0.30;;;0.10;;
44824;SDS011;30542;47.928;2.138;2023-05-10T02:28:21;0.20;;;0.10;;
44824;SDS011;30542;47.928;2.138;2023-05-10T02:33:23;0.40;;;0.10;;
44824;SDS011;30542;47.928;2.138;2023-05-10T02:38:24;0.50;;;0.20;;
44824;SDS011;30542;47.928;2.138;2023-05-10T02:43:25;0.95;;;0.20;;
44824;SDS011;30542;47.928;2.138;2023-05-10T02:48:28;0.93;;;0.10;;
44824;SDS011;30542;47.928;2.138;2023-05-10T02:53:33;0.35;;;0.10;;
44824;SDS011;30542;47.928;2.138;2023-05-10T02:58:35;0.25;;;0.10;;
44824;SDS011;30542;47.928;2.138;2023-05-10T03:03:35;0.47;;;0.10;;
44824;SDS011;30542;47.928;2.138;2023-05-10T03:08:36;0.33;;;0.10;;
44824;SDS011;30542;47.928;2.138;2023-05-10T03:13:42;0.30;;;0.10;;
44824;SDS011;30542;47.928;2.138;2023-05-10T03:18:54;0.60;;;0.20;;
44824;SDS011;30542;47.928;2.138;2023-05-10T03:24:05;0.30;;;0.10;;
44824;SDS011;30542;47.928;2.138;2023-05-10T03:29:08;1.23;;;0.20;;
44824;SDS011;30542;47.928;2.138;2023-05-10T03:34:09;0.35;;;0.10;;
44824;SDS011;30542;47.928;2.138;2023-05-10T03:39:09;0.40;;;0.10;;
44824;SDS011;30542;47.928;2.138;2023-05-10T03:44:10;0.75;;;0.10;;
44824;SDS011;30542;47.928;2.138;2023-05-10T03:49:10;0.50;;;0.20;;
44824;SDS011;30542;47.928;2.138;2023-05-10T03:54:11;0.77;;;0.25;;
44824;SDS011;30542;47.928;2.138;2023-05-10T03:59:11;0.73;;;0.20;;
44824;SDS011;30542;47.928;2.138;2023-05-10T04:04:11;0.93;;;0.20;;
44824;SDS011;30542;47.928;2.138;2023-05-10T04:09:12;0.70;;;0.10;;
44824;SDS011;30542;47.928;2.138;2023-05-10T04:14:12;0.43;;;0.10;;
44824;SDS011;30542;47.928;2.138;2023-05-10T04:19:12;0.40;;;0.30;;
44824;SDS011;30542;47.928;2.138;2023-05-10T04:24:13;0.87;;;0.10;;
44824;SDS011;30542;47.928;2.138;2023-05-10T04:29:13;0.73;;;0.20;;
44824;SDS011;30542;47.928;2.138;2023-05-10T04:34:13;0.55;;;0.20;;
44824;SDS011;30542;47.928;2.138;2023-05-10T04:39:14;0.95;;;0.28;;
44824;SDS011;30542;47.928;2.138;2023-05-10T04:44:14;2.10;;;0.37;;
44824;SDS011;30542;47.928;2.138;2023-05-10T04:49:14;1.65;;;0.10;;
44824;SDS011;30542;47.928;2.138;2023-05-10T04:54:15;0.53;;;0.20;;
44824;SDS011;30542;47.928;2.138;2023-05-10T04:59:15;1.17;;;0.50;;
44824;SDS011;30542;47.928;2.138;2023-05-10T05:04:16;0.75;;;0.43;;
44824;SDS011;30542;47.928;2.138;2023-05-10T05:09:16;0.93;;;0.20;;
44824;SDS011;30542;47.928;2.138;2023-05-10T05:14:17;0.20;;;0.10;;
44824;SDS011;30542;47.928;2.138;2023-05-10T05:19:17;1.73;;;0.30;;
44824;SDS011;30542;47.928;2.138;2023-05-10T05:24:17;1.13;;;0.20;;
44824;SDS011;30542;47.928;2.138;2023-05-10T05:29:18;0.50;;;0.10;;
44824;SDS011;30542;47.928;2.138;2023-05-10T05:34:18;0.63;;;0.10;;
44824;SDS011;30542;47.928;2.138;2023-05-10T05:39:20;0.63;;;0.20;;
44824;SDS011;30542;47.928;2.138;2023-05-10T05:44:20;1.57;;;0.20;;
44824;SDS011;30542;47.928;2.138;2023-05-10T05:49:21;1.60;;;0.20;;
44824;SDS011;30542;47.928;2.138;2023-05-10T05:54:21;1.40;;;0.60;;
44824;SDS011;30542;47.928;2.138;2023-05-10T05:59:21;2.80;;;0.23;;
44824;SDS011;30542;47.928;2.138;2023-05-10T06:04:22;5.82;;;0.30;;
44824;SDS011;30542;47.928;2.138;2023-05-10T06:09:22;3.00;;;0.63;;
44824;SDS011;30542;47.928;2.138;2023-05-10T06:14:24;5.20;;;0.88;;
44824;SDS011;30542;47.928;2.138;2023-05-10T06:19:24;4.43;;;1.07;;
44824;SDS011;30542;47.928;2.138;2023-05-10T06:24:26;6.25;;;1.52;;
44824;SDS011;30542;47.928;2.138;2023-05-10T06:29:27;6.72;;;1.58;;
44824;SDS011;30542;47.928;2.138;2023-05-10T06:34:28;6.27;;;1.57;;
44824;SDS011;30542;47.928;2.138;2023-05-10T06:39:28;9.38;;;1.67;;
44824;SDS011;30542;47.928;2.138;2023-05-10T06:44:28;8.27;;;1.10;;
44824;SDS011;30542;47.928;2.138;2023-05-10T06:49:29;4.67;;;0.83;;
44824;SDS011;30542;47.928;2.138;2023-05-10T06:54:29;3.83;;;0.70;;
44824;SDS011;30542;47.928;2.138;2023-05-10T06:59:29;7.07;;;1.42;;
44824;SDS011;30542;47.928;2.138;2023-05-10T07:04:30;4.63;;;0.67;;
44824;SDS011;30542;47.928;2.138;2023-05-10T07:09:30;5.72;;;1.40;;
44824;SDS011;30542;47.928;2.138;2023-05-10T07:14:31;8.63;;;1.90;;
44824;SDS011;30542;47.928;2.138;2023-05-10T07:19:31;6.20;;;1.30;;
44824;SDS011;30542;47.928;2.138;2023-05-10T07:24:32;8.60;;;1.52;;
44824;SDS011;30542;47.928;2.138;2023-05-10T07:29:33;8.73;;;1.40;;
44824;SDS011;30542;47.928;2.138;2023-05-10T07:34:33;9.17;;;1.50;;
44824;SDS011;30542;47.928;2.138;2023-05-10T07:39:34;6.15;;;0.90;;
44824;SDS011;30542;47.928;2.138;2023-05-10T07:44:34;8.03;;;1.13;;
44824;SDS011;30542;47.928;2.138;2023-05-10T07:49:34;4.97;;;1.13;;
44824;SDS011;30542;47.928;2.138;2023-05-10T07:54:35;7.40;;;1.75;;
44824;SDS011;30542;47.928;2.138;2023-05-10T07:59:35;6.73;;;1.40;;
44824;SDS011;30542;47.928;2.138;2023-05-10T08:04:36;5.68;;;0.95;;
44824;SDS011;30542;47.928;2.138;2023-05-10T08:09:36;9.85;;;1.40;;
44824;SDS011;30542;47.928;2.138;2023-05-10T08:14:37;7.68;;;1.60;;
44824;SDS011;30542;47.928;2.138;2023-05-10T08:19:37;10.50;;;2.43;;
44824;SDS011;30542;47.928;2.138;2023-05-10T08:24:37;9.23;;;2.10;;
44824;SDS011;30542;47.928;2.138;2023-05-10T08:29:38;7.93;;;1.30;;
44824;SDS011;30542;47.928;2.138;2023-05-10T08:34:39;13.50;;;2.40;;
44824;SDS011;30542;47.928;2.138;2023-05-10T08:39:39;7.33;;;1.70;;
44824;SDS011;30542;47.928;2.138;2023-05-10T08:44:40;6.00;;;1.52;;
44824;SDS011;30542;47.928;2.138;2023-05-10T08:49:42;8.07;;;1.88;;
44824;SDS011;30542;47.928;2.138;2023-05-10T08:54:44;7.68;;;1.40;;
44824;SDS011;30542;47.928;2.138;2023-05-10T08:59:44;5.50;;;1.17;;
44824;SDS011;30542;47.928;2.138;2023-05-10T09:04:45;7.05;;;1.40;;
44824;SDS011;30542;47.928;2.138;2023-05-10T09:09:46;4.53;;;0.95;;
44824;SDS011;30542;47.928;2.138;2023-05-10T09:14:47;8.60;;;1.70;;
44824;SDS011;30542;47.928;2.138;2023-05-10T09:19:48;5.93;;;1.15;;
44824;SDS011;30542;47.928;2.138;2023-05-10T09:24:50;4.73;;;0.93;;
44824;SDS011;30542;47.928;2.138;2023-05-10T09:30:04;4.47;;;0.70;;
44824;SDS011;30542;47.928;2.138;2023-05-10T09:35:08;3.92;;;0.90;;
44824;SDS011;30542;47.928;2.138;2023-05-10T09:45:15;4.93;;;0.80;;
44824;SDS011;30542;47.928;2.138;2023-05-10T09:50:15;2.93;;;0.67;;
44824;SDS011;30542;47.928;2.138;2023-05-10T09:55:16;2.83;;;0.80;;
44824;SDS011;30542;47.928;2.138;2023-05-10T10:00:19;2.30;;;0.75;;
44824;SDS011;30542;47.928;2.138;2023-05-10T10:05:55;4.50;;;0.93;;
44824;SDS011;30542;47.928;2.138;2023-05-10T10:10:49;5.20;;;0.95;;
44824;SDS011;30542;47.928;2.138;2023-05-10T10:15:49;5.45;;;0.77;;
44824;SDS011;30542;47.928;2.138;2023-05-10T10:20:52;5.72;;;1.17;;
44824;SDS011;30542;47.928;2.138;2023-05-10T10:25:54;5.32;;;1.30;;
44824;SDS011;30542;47.928;2.138;2023-05-10T10:30:55;6.50;;;1.20;;
44824;SDS011;30542;47.928;2.138;2023-05-10T10:36:00;7.15;;;1.50;;
44824;SDS011;30542;47.928;2.138;2023-05-10T10:41:04;5.35;;;1.33;;
44824;SDS011;30542;47.928;2.138;2023-05-10T10:51:20;7.05;;;1.15;;
44824;SDS011;30542;47.928;2.138;2023-05-10T10:56:21;5.57;;;1.20;;
44824;SDS011;30542;47.928;2.138;2023-05-10T11:01:23;5.65;;;1.05;;
44824;SDS011;30542;47.928;2.138;2023-05-10T11:06:33;4.90;;;1.00;;
44824;SDS011;30542;47.928;2.138;2023-05-10T11:11:53;4.40;;;1.42;;
44824;SDS011;30542;47.928;2.138;2023-05-10T11:17:00;5.38;;;0.70;;
44824;SDS011;30542;47.928;2.138;2023-05-10T11:27:04;5.03;;;1.13;;
44824;SDS011;30542;47.928;2.138;2023-05-10T11:32:08;4.95;;;1.17;;
44824;SDS011;30542;47.928;2.138;2023-05-10T11:37:09;5.10;;;1.10;;
44824;SDS011;30542;47.928;2.138;2023-05-10T11:42:09;2.50;;;0.97;;
44824;SDS011;30542;47.928;2.138;2023-05-10T11:47:11;4.10;;;1.05;;
44824;SDS011;30542;47.928;2.138;2023-05-10T11:52:12;3.97;;;0.90;;
44824;SDS011;30542;47.928;2.138;2023-05-10T11:57:12;5.53;;;1.30;;
44824;SDS011;30542;47.928;2.138;2023-05-10T12:02:15;4.70;;;1.25;;
44824;SDS011;30542;47.928;2.138;2023-05-10T12:07:15;3.63;;;1.13;;
44824;SDS011;30542;47.928;2.138;2023-05-10T12:12:25;5.30;;;1.20;;
44824;SDS011;30542;47.928;2.138;2023-05-10T12:17:29;3.15;;;0.90;;
44824;SDS011;30542;47.928;2.138;2023-05-10T12:22:30;4.20;;;1.30;;
44824;SDS011;30542;47.928;2.138;2023-05-10T12:27:33;3.07;;;0.90;;
44824;SDS011;30542;47.928;2.138;2023-05-10T12:32:43;5.03;;;1.10;;
44824;SDS011;30542;47.928;2.138;2023-05-10T12:37:44;5.15;;;0.98;;
44824;SDS011;30542;47.928;2.138;2023-05-10T12:42:44;6.90;;;0.75;;
44824;SDS011;30542;47.928;2.138;2023-05-10T12:47:45;4.07;;;1.10;;
44824;SDS011;30542;47.928;2.138;2023-05-10T12:52:45;4.80;;;0.90;;
44824;SDS011;30542;47.928;2.138;2023-05-10T12:57:45;5.17;;;0.83;;
44824;SDS011;30542;47.928;2.138;2023-05-10T13:02:46;4.77;;;1.27;;
44824;SDS011;30542;47.928;2.138;2023-05-10T13:07:46;4.10;;;0.88;;
44824;SDS011;30542;47.928;2.138;2023-05-10T13:12:46;3.43;;;0.80;;
44824;SDS011;30542;47.928;2.138;2023-05-10T13:17:47;4.30;;;1.58;;
44824;SDS011;30542;47.928;2.138;2023-05-10T13:22:47;4.17;;;1.00;;
44824;SDS011;30542;47.928;2.138;2023-05-10T13:27:47;3.63;;;0.80;;
44824;SDS011;30542;47.928;2.138;2023-05-10T13:32:48;4.28;;;1.33;;
44824;SDS011;30542;47.928;2.138;2023-05-10T13:37:48;4.13;;;0.97;;
44824;SDS011;30542;47.928;2.138;2023-05-10T13:42:49;3.42;;;0.85;;
44824;SDS011;30542;47.928;2.138;2023-05-10T13:47:49;3.37;;;0.70;;
44824;SDS011;30542;47.928;2.138;2023-05-10T13:52:49;4.32;;;1.38;;
44824;SDS011;30542;47.928;2.138;2023-05-10T13:57:50;2.80;;;0.68;;
44824;SDS011;30542;47.928;2.138;2023-05-10T14:02:50;4.70;;;0.87;;
44824;SDS011;30542;47.928;2.138;2023-05-10T14:07:51;3.47;;;0.80;;
44824;SDS011;30542;47.928;2.138;2023-05-10T14:12:51;3.77;;;0.90;;
44824;SDS011;30542;47.928;2.138;2023-05-10T14:17:51;3.93;;;1.10;;
44824;SDS011;30542;47.928;2.138;2023-05-10T14:22:52;4.83;;;0.67;;
44824;SDS011;30542;47.928;2.138;2023-05-10T14:27:52;2.80;;;0.70;;
44824;SDS011;30542;47.928;2.138;2023-05-10T14:32:55;2.33;;;0.50;;
44824;SDS011;30542;47.928;2.138;2023-05-10T14:37:58;3.28;;;0.95;;
44824;SDS011;30542;47.928;2.138;2023-05-10T14:42:58;4.78;;;0.95;;
44824;SDS011;30542;47.928;2.138;2023-05-10T14:47:58;6.87;;;1.80;;
44824;SDS011;30542;47.928;2.138;2023-05-10T14:53:00;7.72;;;1.77;;
44824;SDS011;30542;47.928;2.138;2023-05-10T14:58:01;11.73;;;2.60;;
44824;SDS011;30542;47.928;2.138;2023-05-10T15:03:02;9.57;;;2.15;;
44824;SDS011;30542;47.928;2.138;2023-05-10T15:08:03;8.82;;;2.65;;
44824;SDS011;30542;47.928;2.138;2023-05-10T15:13:05;7.68;;;3.17;;
44824;SDS011;30542;47.928;2.138;2023-05-10T15:18:05;8.03;;;2.93;;
44824;SDS011;30542;47.928;2.138;2023-05-10T15:23:06;5.70;;;2.30;;
44824;SDS011;30542;47.928;2.138;2023-05-10T15:28:06;6.50;;;2.50;;
44824;SDS011;30542;47.928;2.138;2023-05-10T15:33:06;8.63;;;2.53;;
44824;SDS011;30542;47.928;2.138;2023-05-10T15:38:07;9.57;;;2.72;;
44824;SDS011;30542;47.928;2.138;2023-05-10T15:43:09;8.02;;;2.72;;
44824;SDS011;30542;47.928;2.138;2023-05-10T15:48:09;6.20;;;2.20;;
44824;SDS011;30542;47.928;2.138;2023-05-10T15:53:09;6.10;;;2.40;;
44824;SDS011;30542;47.928;2.138;2023-05-10T15:58:09;4.50;;;2.00;;
44824;SDS011;30542;47.928;2.138;2023-05-10T16:03:10;5.53;;;2.03;;
44824;SDS011;30542;47.928;2.138;2023-05-10T16:08:11;6.97;;;2.05;;
44824;SDS011;30542;47.928;2.138;2023-05-10T16:13:11;7.10;;;1.63;;
44824;SDS011;30542;47.928;2.138;2023-05-10T16:18:14;6.35;;;1.45;;
44824;SDS011;30542;47.928;2.138;2023-05-10T16:23:16;4.68;;;1.17;;
44824;SDS011;30542;47.928;2.138;2023-05-10T16:28:17;5.73;;;1.63;;
44824;SDS011;30542;47.928;2.138;2023-05-10T16:33:19;5.53;;;1.45;;
44824;SDS011;30542;47.928;2.138;2023-05-10T16:38:20;4.55;;;1.45;;
44824;SDS011;30542;47.928;2.138;2023-05-10T16:43:20;4.10;;;1.20;;
44824;SDS011;30542;47.928;2.138;2023-05-10T16:48:21;3.63;;;1.37;;
44824;SDS011;30542;47.928;2.138;2023-05-10T16:53:21;4.82;;;1.17;;
44824;SDS011;30542;47.928;2.138;2023-05-10T16:58:21;3.17;;;1.13;;
44824;SDS011;30542;47.928;2.138;2023-05-10T17:03:22;3.80;;;1.30;;
44824;SDS011;30542;47.928;2.138;2023-05-10T17:08:22;4.50;;;1.40;;
44824;SDS011;30542;47.928;2.138;2023-05-10T17:13:22;4.32;;;1.33;;
44824;SDS011;30542;47.928;2.138;2023-05-10T17:18:22;4.27;;;1.10;;
44824;SDS011;30542;47.928;2.138;2023-05-10T17:23:23;3.53;;;1.10;;
44824;SDS011;30542;47.928;2.138;2023-05-10T17:28:23;2.87;;;0.87;;
44824;SDS011;30542;47.928;2.138;2023-05-10T17:33:23;3.33;;;1.00;;
44824;SDS011;30542;47.928;2.138;2023-05-10T17:38:24;2.63;;;1.02;;
44824;SDS011;30542;47.928;2.138;2023-05-10T17:43:25;3.20;;;1.10;;
44824;SDS011;30542;47.928;2.138;2023-05-10T17:48:25;5.63;;;1.20;;
44824;SDS011;30542;47.928;2.138;2023-05-10T17:53:25;3.70;;;0.90;;
44824;SDS011;30542;47.928;2.138;2023-05-10T17:58:26;3.17;;;1.13;;
44824;SDS011;30542;47.928;2.138;2023-05-10T18:03:26;3.97;;;1.08;;
44824;SDS011;30542;47.928;2.138;2023-05-10T18:08:27;3.17;;;1.00;;
44824;SDS011;30542;47.928;2.138;2023-05-10T18:13:29;3.25;;;1.00;;
44824;SDS011;30542;47.928;2.138;2023-05-10T18:18:29;6.05;;;1.40;;
44824;SDS011;30542;47.928;2.138;2023-05-10T18:23:30;2.85;;;1.00;;
44824;SDS011;30542;47.928;2.138;2023-05-10T18:28:30;2.83;;;0.87;;
44824;SDS011;30542;47.928;2.138;2023-05-10T18:33:31;3.10;;;1.33;;
44824;SDS011;30542;47.928;2.138;2023-05-10T18:38:31;2.57;;;0.70;;
44824;SDS011;30542;47.928;2.138;2023-05-10T18:43:31;4.38;;;0.60;;
44824;SDS011;30542;47.928;2.138;2023-05-10T18:48:34;3.10;;;1.10;;
44824;SDS011;30542;47.928;2.138;2023-05-10T18:53:35;2.20;;;0.70;;
44824;SDS011;30542;47.928;2.138;2023-05-10T18:58:36;2.95;;;1.00;;
44824;SDS011;30542;47.928;2.138;2023-05-10T19:03:37;4.95;;;1.00;;
44824;SDS011;30542;47.928;2.138;2023-05-10T19:08:37;1.90;;;0.60;;
44824;SDS011;30542;47.928;2.138;2023-05-10T19:13:37;2.77;;;1.27;;
44824;SDS011;30542;47.928;2.138;2023-05-10T19:18:38;2.10;;;0.80;;
44824;SDS011;30542;47.928;2.138;2023-05-10T19:23:38;3.55;;;1.02;;
44824;SDS011;30542;47.928;2.138;2023-05-10T19:28:40;3.78;;;1.38;;
44824;SDS011;30542;47.928;2.138;2023-05-10T19:33:41;3.20;;;0.90;;
44824;SDS011;30542;47.928;2.138;2023-05-10T19:38:41;4.20;;;0.67;;
44824;SDS011;30542;47.928;2.138;2023-05-10T19:43:41;3.03;;;0.90;;
44824;SDS011;30542;47.928;2.138;2023-05-10T19:48:42;4.97;;;1.03;;
44824;SDS011;30542;47.928;2.138;2023-05-10T19:53:42;3.37;;;0.93;;
44824;SDS011;30542;47.928;2.138;2023-05-10T19:58:43;1.27;;;0.60;;
44824;SDS011;30542;47.928;2.138;2023-05-10T20:03:44;2.53;;;0.63;;
44824;SDS011;30542;47.928;2.138;2023-05-10T20:08:44;1.70;;;0.70;;
44824;SDS011;30542;47.928;2.138;2023-05-10T20:13:44;4.07;;;0.85;;
44824;SDS011;30542;47.928;2.138;2023-05-10T20:18:45;2.40;;;0.80;;
44824;SDS011;30542;47.928;2.138;2023-05-10T20:23:45;2.73;;;0.60;;
44824;SDS011;30542;47.928;2.138;2023-05-10T20:28:45;1.60;;;0.60;;
44824;SDS011;30542;47.928;2.138;2023-05-10T20:33:46;2.40;;;0.60;;
44824;SDS011;30542;47.928;2.138;2023-05-10T20:38:46;1.23;;;0.50;;
44824;SDS011;30542;47.928;2.138;2023-05-10T20:43:46;2.30;;;0.67;;
44824;SDS011;30542;47.928;2.138;2023-05-10T20:48:47;2.22;;;0.55;;
44824;SDS011;30542;47.928;2.138;2023-05-10T20:53:47;1.47;;;0.60;;
44824;SDS011;30542;47.928;2.138;2023-05-10T20:58:47;3.60;;;0.70;;
44824;SDS011;30542;47.928;2.138;2023-05-10T21:03:48;1.42;;;0.52;;
44824;SDS011;30542;47.928;2.138;2023-05-10T21:08:48;2.40;;;0.63;;
44824;SDS011;30542;47.928;2.138;2023-05-10T21:13:49;1.23;;;0.50;;
44824;SDS011;30542;47.928;2.138;2023-05-10T21:18:50;2.50;;;0.80;;
44824;SDS011;30542;47.928;2.138;2023-05-10T21:23:50;2.67;;;0.67;;
44824;SDS011;30542;47.928;2.138;2023-05-10T21:28:50;2.40;;;0.77;;
44824;SDS011;30542;47.928;2.138;2023-05-10T21:33:50;2.13;;;0.67;;
44824;SDS011;30542;47.928;2.138;2023-05-10T21:38:51;2.17;;;0.40;;
44824;SDS011;30542;47.928;2.138;2023-05-10T21:43:51;0.83;;;0.50;;
44824;SDS011;30542;47.928;2.138;2023-05-10T21:48:51;1.63;;;0.70;;
44824;SDS011;30542;47.928;2.138;2023-05-10T21:53:52;2.05;;;0.40;;
44824;SDS011;30542;47.928;2.138;2023-05-10T21:58:53;1.23;;;0.43;;
44824;SDS011;30542;47.928;2.138;2023-05-10T22:03:53;1.15;;;0.45;;
44824;SDS011;30542;47.928;2.138;2023-05-10T22:08:54;2.77;;;0.90;;
44824;SDS011;30542;47.928;2.138;2023-05-10T22:13:54;1.77;;;0.40;;
44824;SDS011;30542;47.928;2.138;2023-05-10T22:18:55;1.13;;;0.45;;
44824;SDS011;30542;47.928;2.138;2023-05-10T22:23:55;1.95;;;0.40;;
44824;SDS011;30542;47.928;2.138;2023-05-10T22:28:55;1.17;;;0.47;;
44824;SDS011;30542;47.928;2.138;2023-05-10T22:33:56;1.83;;;0.57;;
44824;SDS011;30542;47.928;2.138;2023-05-10T22:38:56;1.63;;;0.40;;
44824;SDS011;30542;47.928;2.138;2023-05-10T22:43:57;2.03;;;0.45;;
44824;SDS011;30542;47.928;2.138;2023-05-10T22:48:57;1.13;;;0.30;;
44824;SDS011;30542;47.928;2.138;2023-05-10T22:53:58;1.58;;;0.40;;
44824;SDS011;30542;47.928;2.138;2023-05-10T22:58:58;1.47;;;0.47;;
44824;SDS011;30542;47.928;2.138;2023-05-10T23:03:59;1.58;;;0.40;;
44824;SDS011;30542;47.928;2.138;2023-05-10T23:08:59;1.75;;;0.50;;
44824;SDS011;30542;47.928;2.138;2023-05-10T23:13:59;0.97;;;0.60;;
44824;SDS011;30542;47.928;2.138;2023-05-10T23:19:00;1.25;;;0.40;;
44824;SDS011;30542;47.928;2.138;2023-05-10T23:24:00;1.42;;;0.40;;
44824;SDS011;30542;47.928;2.138;2023-05-10T23:29:01;1.17;;;0.53;;
44824;SDS011;30542;47.928;2.138;2023-05-10T23:34:01;0.60;;;0.47;;
44824;SDS011;30542;47.928;2.138;2023-05-10T23:39:02;1.05;;;0.47;;
44824;SDS011;30542;47.928;2.138;2023-05-10T23:44:03;1.80;;;0.40;;
44824;SDS011;30542;47.928;2.138;2023-05-10T23:49:03;0.65;;;0.35;;
44824;SDS011;30542;47.928;2.138;2023-05-10T23:54:03;0.70;;;0.30;;
44824;SDS011;30542;47.928;2.138;2023-05-10T23:59:04;0.90;;;0.30;;
